createdAt,value
2019-03-31T00:01:07.997Z,6.00
2019-03-31T00:03:32.358Z,6.00
2019-03-31T00:06:01.203Z,6.00
2019-03-31T00:08:29.960Z,6.00
2019-03-31T00:11:00.611Z,6.00
2019-03-31T00:13:29.161Z,6.00
2019-03-31T00:15:57.980Z,6.00
2019-03-31T00:18:26.751Z,6.00
2019-03-31T00:20:55.541Z,6.00
2019-03-31T00:23:24.431Z,6.00
2019-03-31T00:25:53.279Z,6.00
2019-03-31T00:28:22.164Z,5.90
2019-03-31T00:30:51.440Z,5.90
2019-03-31T00:33:20.222Z,5.90
2019-03-31T00:35:49.002Z,6.00
2019-03-31T00:38:17.775Z,6.00
2019-03-31T00:40:46.569Z,5.90
2019-03-31T00:43:15.371Z,5.90
2019-03-31T00:45:44.204Z,5.90
2019-03-31T00:48:12.976Z,5.90
2019-03-31T00:50:41.774Z,5.90
2019-03-31T00:53:10.627Z,5.90
2019-03-31T00:55:39.398Z,5.90
2019-03-31T00:58:08.210Z,5.90
2019-03-31T01:00:48.087Z,5.90
2019-03-31T01:03:18.700Z,5.90
2019-03-31T01:05:47.502Z,5.90
2019-03-31T01:08:16.431Z,5.90
2019-03-31T01:10:45.159Z,5.90
2019-03-31T01:13:14.642Z,5.90
2019-03-31T01:15:43.669Z,5.90
2019-03-31T01:18:12.916Z,5.90
2019-03-31T01:20:42.216Z,5.90
2019-03-31T01:23:10.973Z,5.90
2019-03-31T01:25:39.771Z,5.90
2019-03-31T01:28:08.543Z,5.90
2019-03-31T01:30:37.466Z,5.90
2019-03-31T01:33:06.400Z,5.90
2019-03-31T01:35:35.660Z,5.90
2019-03-31T01:38:04.536Z,5.90
2019-03-31T01:40:33.319Z,5.90
2019-03-31T01:43:02.065Z,5.90
2019-03-31T01:45:30.838Z,5.90
2019-03-31T01:47:59.635Z,6.00
2019-03-31T01:50:28.586Z,6.10
2019-03-31T01:52:57.435Z,6.20
2019-03-31T01:55:26.219Z,6.30
2019-03-31T01:57:55.098Z,6.40
2019-03-31T02:00:28.069Z,6.40
2019-03-31T02:02:56.940Z,6.50
2019-03-31T02:05:25.684Z,6.50
2019-03-31T02:07:54.501Z,6.50
2019-03-31T02:10:23.446Z,6.50
2019-03-31T02:12:52.230Z,6.60
2019-03-31T02:15:21.070Z,6.60
2019-03-31T02:17:49.877Z,6.60
2019-03-31T02:20:18.728Z,6.60
2019-03-31T02:22:47.572Z,6.60
2019-03-31T02:25:16.385Z,6.70
2019-03-31T02:27:45.134Z,6.70
2019-03-31T02:30:14.206Z,6.70
2019-03-31T02:32:42.993Z,6.80
2019-03-31T02:35:11.759Z,6.80
2019-03-31T02:37:40.550Z,6.80
2019-03-31T02:40:09.302Z,6.80
2019-03-31T02:42:38.059Z,6.90
2019-03-31T02:45:08.124Z,6.90
2019-03-31T02:47:36.903Z,6.90
2019-03-31T02:50:07.081Z,6.90
2019-03-31T02:52:35.863Z,6.90
2019-03-31T02:55:06.181Z,7.00
2019-03-31T02:57:35.648Z,7.00
2019-03-31T03:00:05.485Z,6.90
2019-03-31T03:02:42.022Z,6.90
2019-03-31T03:05:18.471Z,6.90
2019-03-31T03:07:38.649Z,6.80
2019-03-31T03:10:07.419Z,6.90
2019-03-31T03:12:37.801Z,6.90
2019-03-31T03:15:07.008Z,7.00
2019-03-31T03:17:35.802Z,7.00
2019-03-31T03:20:05.352Z,7.00
2019-03-31T03:22:34.168Z,7.10
2019-03-31T03:25:03.003Z,7.20
2019-03-31T03:27:31.798Z,7.20
2019-03-31T03:30:00.731Z,7.30
2019-03-31T03:32:29.750Z,7.30
2019-03-31T03:34:58.566Z,7.30
2019-03-31T03:37:27.368Z,7.20
2019-03-31T03:39:56.188Z,7.10
2019-03-31T03:42:24.934Z,7.00
2019-03-31T03:44:53.702Z,6.90
2019-03-31T03:47:22.450Z,6.80
2019-03-31T03:49:51.352Z,6.80
2019-03-31T03:52:20.117Z,6.90
2019-03-31T03:54:48.976Z,6.90
2019-03-31T03:57:17.790Z,7.00
2019-03-31T03:59:46.599Z,7.10
2019-03-31T04:02:15.437Z,7.10
2019-03-31T04:04:44.245Z,7.20
2019-03-31T04:07:13.071Z,7.30
2019-03-31T04:09:41.845Z,7.30
2019-03-31T04:12:10.633Z,7.40
2019-03-31T04:14:39.455Z,7.40
2019-03-31T04:17:08.251Z,7.50
2019-03-31T04:19:37.452Z,7.50
2019-03-31T04:22:06.233Z,7.50
2019-03-31T04:24:35.084Z,7.50
2019-03-31T04:27:03.844Z,7.50
2019-03-31T04:29:32.660Z,7.50
2019-03-31T04:32:01.423Z,7.60
2019-03-31T04:34:30.197Z,7.60
2019-03-31T04:36:59.026Z,7.60
2019-03-31T04:39:27.797Z,7.70
2019-03-31T04:41:56.689Z,7.70
2019-03-31T04:44:25.482Z,7.80
2019-03-31T04:46:54.258Z,7.80
2019-03-31T04:49:23.080Z,7.80
2019-03-31T04:51:51.851Z,7.80
2019-03-31T04:54:20.686Z,7.90
2019-03-31T04:56:49.444Z,7.90
2019-03-31T04:59:18.254Z,7.90
2019-03-31T05:01:47.077Z,8.00
2019-03-31T05:04:15.869Z,8.00
2019-03-31T05:06:44.763Z,8.00
2019-03-31T05:09:13.530Z,8.00
2019-03-31T05:11:42.413Z,8.10
2019-03-31T05:14:11.235Z,8.10
2019-03-31T05:16:40.005Z,8.10
2019-03-31T05:19:08.880Z,8.20
2019-03-31T05:21:37.654Z,8.20
2019-03-31T05:24:06.471Z,8.30
2019-03-31T05:26:35.254Z,8.30
2019-03-31T05:29:04.035Z,8.50
2019-03-31T05:31:32.884Z,8.50
2019-03-31T05:34:01.643Z,8.50
2019-03-31T05:36:30.390Z,8.60
2019-03-31T05:38:59.206Z,8.60
2019-03-31T05:41:27.974Z,8.60
2019-03-31T05:44:05.565Z,8.60
2019-03-31T05:46:27.152Z,8.60
2019-03-31T05:48:55.946Z,8.70
2019-03-31T05:51:24.718Z,8.70
2019-03-31T05:53:53.577Z,8.80
2019-03-31T05:56:22.345Z,8.80
2019-03-31T05:58:51.141Z,8.80
2019-03-31T06:01:19.923Z,8.80
2019-03-31T06:03:48.682Z,8.80
2019-03-31T06:06:17.513Z,8.80
2019-03-31T06:08:46.397Z,8.90
2019-03-31T06:11:15.114Z,9.00
2019-03-31T06:13:43.934Z,9.10
2019-03-31T06:16:12.685Z,9.10
2019-03-31T06:18:41.513Z,9.20
2019-03-31T06:21:10.349Z,9.20
2019-03-31T06:23:39.140Z,9.20
2019-03-31T06:26:07.910Z,9.20
2019-03-31T06:28:36.704Z,9.10
2019-03-31T06:31:05.514Z,9.20
2019-03-31T06:33:34.352Z,9.10
2019-03-31T06:36:03.220Z,9.10
2019-03-31T06:38:31.962Z,9.10
2019-03-31T06:41:00.768Z,9.20
2019-03-31T06:43:29.581Z,9.30
2019-03-31T06:45:58.397Z,9.40
2019-03-31T06:48:27.189Z,9.60
2019-03-31T06:50:56.030Z,9.70
2019-03-31T06:53:24.801Z,9.90
2019-03-31T06:55:53.573Z,10.10
2019-03-31T06:58:22.372Z,10.30
2019-03-31T07:00:51.150Z,10.40
2019-03-31T07:03:19.981Z,10.40
2019-03-31T07:05:48.725Z,10.40
2019-03-31T07:08:17.680Z,10.50
2019-03-31T07:10:46.570Z,10.50
2019-03-31T07:13:15.320Z,10.50
2019-03-31T07:15:44.082Z,10.50
2019-03-31T07:18:15.908Z,10.50
2019-03-31T07:20:43.296Z,10.50
2019-03-31T07:23:12.122Z,10.50
2019-03-31T07:25:40.986Z,10.70
2019-03-31T07:28:09.837Z,11.20
2019-03-31T07:30:38.624Z,11.70
2019-03-31T07:33:07.460Z,11.90
2019-03-31T07:35:38.797Z,12.40
2019-03-31T07:38:06.866Z,12.80
2019-03-31T07:40:35.681Z,12.90
2019-03-31T07:43:04.620Z,12.70
2019-03-31T07:45:33.614Z,12.50
2019-03-31T07:48:02.363Z,12.30
2019-03-31T07:50:31.178Z,12.20
2019-03-31T07:53:00.026Z,12.20
2019-03-31T07:55:28.826Z,12.10
2019-03-31T07:57:57.676Z,11.90
2019-03-31T08:00:26.652Z,11.60
2019-03-31T08:02:55.459Z,11.60
2019-03-31T08:05:32.995Z,12.00
2019-03-31T08:07:54.745Z,12.80
2019-03-31T08:10:23.619Z,13.40
2019-03-31T08:12:52.399Z,13.60
2019-03-31T08:15:21.183Z,13.70
2019-03-31T08:17:49.975Z,13.80
2019-03-31T08:20:20.319Z,13.70
2019-03-31T08:22:49.145Z,13.40
2019-03-31T08:25:18.546Z,13.30
2019-03-31T08:27:47.398Z,12.90
2019-03-31T08:30:18.276Z,12.40
2019-03-31T08:32:47.099Z,12.20
2019-03-31T08:35:16.041Z,11.90
2019-03-31T08:37:44.795Z,11.90
2019-03-31T08:40:14.465Z,11.90
2019-03-31T08:42:43.262Z,12.30
2019-03-31T08:45:12.117Z,12.50
2019-03-31T08:47:41.093Z,12.50
2019-03-31T08:50:10.638Z,12.40
2019-03-31T08:52:39.512Z,12.10
2019-03-31T08:55:08.582Z,12.00
2019-03-31T08:57:37.454Z,11.90
2019-03-31T09:00:10.717Z,11.80
2019-03-31T09:02:39.536Z,11.50
2019-03-31T09:05:09.699Z,11.40
2019-03-31T09:07:41.711Z,11.30
2019-03-31T09:10:11.640Z,11.30
2019-03-31T09:12:40.463Z,11.40
2019-03-31T09:15:10.751Z,11.50
2019-03-31T09:17:39.534Z,11.80
2019-03-31T09:20:09.124Z,12.00
2019-03-31T09:22:37.945Z,12.20
2019-03-31T09:25:07.559Z,12.10
2019-03-31T09:27:36.457Z,12.00
2019-03-31T09:30:08.376Z,11.80
2019-03-31T09:32:37.209Z,11.50
2019-03-31T09:35:08.245Z,11.40
2019-03-31T09:37:37.059Z,11.40
2019-03-31T09:40:08.176Z,11.60
2019-03-31T09:42:36.982Z,12.10
2019-03-31T09:45:06.649Z,12.80
2019-03-31T09:47:35.791Z,13.40
2019-03-31T09:50:10.962Z,13.90
2019-03-31T09:52:39.953Z,14.00
2019-03-31T09:55:09.314Z,13.90
2019-03-31T09:57:38.229Z,13.70
2019-03-31T10:00:09.741Z,13.10
2019-03-31T10:02:38.497Z,12.60
2019-03-31T10:05:09.313Z,12.40
2019-03-31T10:07:38.395Z,12.10
2019-03-31T10:10:09.115Z,11.90
2019-03-31T10:12:37.978Z,11.70
2019-03-31T10:15:09.662Z,11.30
2019-03-31T10:17:38.471Z,11.10
2019-03-31T10:20:07.727Z,11.00
2019-03-31T10:22:36.481Z,11.10
2019-03-31T10:25:07.404Z,11.10
2019-03-31T10:27:36.197Z,11.20
2019-03-31T10:30:07.401Z,11.50
2019-03-31T10:32:36.204Z,11.90
2019-03-31T10:35:07.419Z,12.10
2019-03-31T10:37:36.228Z,12.10
2019-03-31T10:40:07.634Z,11.90
2019-03-31T10:42:36.438Z,11.90
2019-03-31T10:45:07.579Z,11.70
2019-03-31T10:47:36.366Z,11.60
2019-03-31T10:50:06.919Z,11.40
2019-03-31T10:52:36.052Z,11.40
2019-03-31T10:55:06.369Z,11.30
2019-03-31T10:57:35.120Z,11.20
2019-03-31T11:00:07.191Z,11.10
2019-03-31T11:02:36.034Z,11.10
2019-03-31T11:05:06.320Z,11.30
2019-03-31T11:07:35.101Z,11.50
2019-03-31T11:10:07.575Z,11.70
2019-03-31T11:12:36.354Z,12.00
2019-03-31T11:15:07.092Z,12.20
2019-03-31T11:17:35.899Z,12.30
2019-03-31T11:20:07.064Z,12.50
2019-03-31T11:22:55.754Z,12.70
2019-03-31T11:25:28.904Z,12.70
2019-03-31T11:27:55.084Z,12.60
2019-03-31T11:30:24.000Z,12.50
2019-03-31T11:32:52.768Z,12.60
2019-03-31T11:35:21.684Z,12.70
2019-03-31T11:37:50.493Z,12.60
2019-03-31T11:40:19.336Z,12.30
2019-03-31T11:42:48.130Z,12.20
2019-03-31T11:45:17.232Z,12.00
2019-03-31T11:47:46.042Z,11.90
2019-03-31T11:50:14.894Z,11.90
2019-03-31T11:52:43.686Z,12.10
2019-03-31T11:55:12.427Z,12.10
2019-03-31T11:57:41.255Z,12.00
2019-03-31T12:00:12.384Z,11.90
2019-03-31T12:02:41.197Z,11.70
2019-03-31T12:05:10.692Z,11.40
2019-03-31T12:07:46.520Z,11.30
2019-03-31T12:10:10.254Z,11.10
2019-03-31T12:12:39.037Z,10.90
2019-03-31T12:15:09.148Z,11.00
2019-03-31T12:17:37.893Z,11.00
2019-03-31T12:20:08.514Z,11.00
2019-03-31T12:22:37.349Z,11.10
2019-03-31T12:25:08.484Z,11.20
2019-03-31T12:27:37.267Z,11.30
2019-03-31T12:30:07.723Z,11.30
2019-03-31T12:32:38.611Z,11.10
2019-03-31T12:35:08.242Z,11.20
2019-03-31T12:37:42.799Z,11.10
2019-03-31T12:40:09.271Z,11.00
2019-03-31T12:42:38.073Z,10.80
2019-03-31T12:45:06.851Z,10.60
2019-03-31T12:47:35.731Z,10.30
2019-03-31T12:50:06.507Z,10.20
2019-03-31T12:52:46.016Z,10.00
2019-03-31T12:55:06.525Z,9.90
2019-03-31T12:57:35.309Z,9.70
2019-03-31T13:00:05.478Z,9.50
2019-03-31T13:02:34.244Z,9.30
2019-03-31T13:05:03.132Z,9.30
2019-03-31T13:07:31.915Z,9.30
2019-03-31T13:10:00.737Z,9.30
2019-03-31T13:12:29.602Z,9.40
2019-03-31T13:14:58.386Z,9.40
2019-03-31T13:17:27.212Z,9.40
2019-03-31T13:19:55.968Z,9.40
2019-03-31T13:22:24.743Z,9.40
2019-03-31T13:24:53.641Z,9.40
2019-03-31T13:27:22.430Z,9.50
2019-03-31T13:29:51.192Z,9.60
2019-03-31T13:32:20.110Z,9.50
2019-03-31T13:34:48.932Z,9.30
2019-03-31T13:37:17.706Z,9.30
2019-03-31T13:39:46.511Z,9.30
2019-03-31T13:42:15.307Z,9.40
2019-03-31T13:44:44.106Z,9.60
2019-03-31T13:47:12.874Z,9.80
2019-03-31T13:49:41.672Z,9.80
2019-03-31T13:52:10.539Z,9.70
2019-03-31T13:54:39.376Z,9.60
2019-03-31T13:57:08.862Z,9.60
2019-03-31T13:59:38.332Z,9.40
2019-03-31T14:02:07.101Z,9.40
2019-03-31T14:04:50.665Z,9.30
2019-03-31T14:07:06.452Z,9.30
2019-03-31T14:09:35.323Z,9.30
2019-03-31T14:12:04.197Z,9.30
2019-03-31T14:14:32.942Z,9.40
2019-03-31T14:17:01.685Z,9.40
2019-03-31T14:19:30.487Z,9.50
2019-03-31T14:21:59.255Z,9.50
2019-03-31T14:24:28.077Z,9.30
2019-03-31T14:26:56.870Z,9.10
2019-03-31T14:29:25.703Z,8.90
2019-03-31T14:31:54.497Z,8.70
2019-03-31T14:34:23.271Z,8.50
2019-03-31T14:36:52.148Z,8.50
2019-03-31T14:39:21.023Z,8.30
2019-03-31T14:41:49.802Z,8.10
2019-03-31T14:44:18.656Z,8.00
2019-03-31T14:46:47.468Z,8.00
2019-03-31T14:49:16.302Z,7.90
2019-03-31T14:51:45.076Z,7.80
2019-03-31T14:54:13.919Z,7.70
2019-03-31T14:56:42.738Z,7.50
2019-03-31T14:59:11.546Z,7.30
2019-03-31T15:01:40.306Z,7.20
2019-03-31T15:04:09.117Z,7.10
2019-03-31T15:06:37.925Z,7.10
2019-03-31T15:09:08.445Z,7.10
2019-03-31T15:11:37.225Z,7.10
2019-03-31T15:14:06.024Z,7.10
2019-03-31T15:16:34.794Z,7.10
2019-03-31T15:19:03.725Z,7.10
2019-03-31T15:21:32.596Z,7.00
2019-03-31T15:24:01.405Z,6.90
2019-03-31T15:26:30.252Z,6.90
2019-03-31T15:28:59.151Z,6.80
2019-03-31T15:31:27.944Z,6.80
2019-03-31T15:33:56.799Z,6.80
2019-03-31T15:36:25.554Z,6.80
2019-03-31T15:39:07.830Z,6.70
2019-03-31T15:41:24.844Z,6.70
2019-03-31T15:50:02.519Z,6.40
2019-03-31T15:52:36.319Z,6.20
2019-03-31T15:55:09.171Z,6.10
2019-03-31T15:57:37.984Z,6.00
2019-03-31T16:00:08.540Z,5.80
2019-03-31T16:02:37.420Z,5.70
2019-03-31T16:05:12.441Z,5.60
2019-03-31T16:07:39.471Z,5.50
2019-03-31T16:10:08.740Z,5.40
2019-03-31T16:12:37.583Z,5.40
2019-03-31T16:15:07.956Z,5.30
2019-03-31T16:17:36.817Z,5.20
2019-03-31T16:23:33.878Z,5.10
2019-03-31T16:26:02.628Z,4.90
2019-03-31T16:28:31.535Z,4.80
2019-03-31T16:31:00.546Z,4.70
2019-03-31T16:33:29.417Z,4.70
2019-03-31T16:35:58.238Z,4.60
2019-03-31T16:38:27.267Z,4.60
2019-03-31T16:40:56.074Z,4.50
2019-03-31T16:43:27.791Z,4.40
2019-03-31T16:45:56.656Z,4.30
2019-03-31T16:48:26.587Z,4.20
2019-03-31T16:50:55.410Z,4.20
2019-03-31T16:53:24.212Z,4.10
2019-03-31T16:55:53.081Z,4.10
2019-03-31T16:58:21.822Z,4.00
2019-03-31T17:00:50.645Z,4.00
2019-03-31T17:03:19.443Z,3.90
2019-03-31T17:05:48.218Z,3.90
2019-03-31T17:08:16.981Z,3.80
2019-03-31T17:10:45.787Z,3.80
2019-03-31T17:13:16.132Z,3.80
2019-03-31T17:15:44.890Z,3.80
2019-03-31T17:18:13.702Z,3.70
2019-03-31T17:20:42.525Z,3.60
2019-03-31T17:23:11.346Z,3.60
2019-03-31T17:25:40.149Z,3.60
2019-03-31T17:28:10.253Z,3.60
2019-03-31T17:30:39.333Z,3.60
2019-03-31T17:33:08.138Z,3.60
2019-03-31T17:35:36.992Z,3.50
2019-03-31T17:38:05.767Z,3.60
2019-03-31T17:40:34.652Z,3.60
2019-03-31T17:43:03.441Z,3.50
2019-03-31T17:45:32.197Z,3.50
2019-03-31T17:48:00.982Z,3.50
2019-03-31T17:50:29.836Z,3.40
2019-03-31T17:52:58.614Z,3.40
2019-03-31T17:55:27.464Z,3.40
2019-03-31T17:57:56.280Z,3.40
2019-03-31T18:00:25.719Z,3.30
2019-03-31T18:02:54.539Z,3.30
2019-03-31T18:05:23.400Z,3.30
2019-03-31T18:07:52.173Z,3.30
2019-03-31T18:10:21.581Z,3.30
2019-03-31T18:12:50.482Z,3.20
2019-03-31T18:15:19.293Z,3.20
2019-03-31T18:17:48.095Z,3.20
2019-03-31T18:20:18.720Z,3.20
2019-03-31T18:22:47.796Z,3.20
2019-03-31T18:25:18.633Z,3.20
2019-03-31T18:27:47.112Z,3.10
2019-03-31T18:30:16.707Z,3.10
2019-03-31T18:32:47.027Z,3.10
2019-03-31T18:35:16.911Z,3.00
2019-03-31T18:37:48.386Z,3.00
2019-03-31T18:40:17.172Z,3.00
2019-03-31T18:42:46.110Z,2.90
2019-03-31T18:45:14.978Z,2.90
2019-03-31T18:47:43.778Z,2.90
2019-03-31T18:50:15.785Z,2.80
2019-03-31T18:52:44.698Z,2.80
2019-03-31T18:55:30.404Z,2.80
2019-03-31T18:58:19.121Z,2.80
2019-03-31T19:07:26.285Z,2.70
2019-03-31T19:10:02.779Z,2.70
2019-03-31T19:12:33.201Z,2.70
2019-03-31T19:15:09.554Z,2.70
2019-03-31T19:17:56.386Z,2.70
2019-03-31T19:20:27.407Z,2.70
2019-03-31T19:23:13.812Z,2.60
2019-03-31T19:25:56.129Z,2.60
2019-03-31T19:28:45.000Z,2.60
2019-03-31T19:31:15.445Z,2.60
2019-03-31T19:33:49.017Z,2.50
2019-03-31T19:36:36.076Z,2.50
2019-03-31T19:39:25.912Z,2.50
2019-03-31T19:41:56.406Z,2.50
2019-03-31T19:44:43.106Z,2.50
2019-03-31T19:47:19.520Z,2.50
2019-03-31T19:49:57.377Z,2.60
2019-03-31T19:52:41.105Z,2.50
2019-03-31T19:55:27.866Z,2.50
2019-03-31T19:58:07.192Z,2.40
2019-03-31T20:00:55.691Z,2.40
2019-03-31T20:03:28.971Z,2.40
2019-03-31T20:05:59.405Z,2.30
2019-03-31T20:08:38.786Z,2.30
2019-03-31T20:11:12.237Z,2.30
2019-03-31T20:13:58.991Z,2.30
2019-03-31T20:16:38.391Z,2.30
2019-03-31T20:19:25.367Z,2.30
2019-03-31T20:22:12.147Z,2.20
2019-03-31T20:24:54.808Z,2.20
2019-03-31T20:27:27.972Z,2.10
2019-03-31T20:29:58.371Z,2.10
2019-03-31T20:32:31.864Z,2.10
2019-03-31T20:35:02.283Z,2.10
2019-03-31T20:37:49.013Z,2.10
2019-03-31T20:40:31.427Z,2.10
2019-03-31T20:43:04.586Z,2.10
2019-03-31T20:45:33.436Z,2.10
2019-03-31T20:48:02.221Z,2.00
2019-03-31T20:50:34.265Z,2.10
2019-03-31T20:53:03.008Z,2.10
2019-03-31T20:55:35.146Z,2.10
2019-03-31T20:58:04.169Z,2.10
2019-03-31T21:00:33.080Z,2.10
2019-03-31T21:03:01.999Z,2.10
2019-03-31T21:05:32.441Z,2.00
2019-03-31T21:08:02.903Z,2.00
2019-03-31T21:10:31.732Z,2.00
2019-03-31T21:13:02.111Z,2.00
2019-03-31T21:15:34.103Z,2.00
2019-03-31T21:18:02.842Z,2.00
2019-03-31T21:20:31.803Z,2.00
2019-03-31T21:23:00.588Z,1.90
2019-03-31T21:25:29.460Z,1.90
2019-03-31T21:27:58.263Z,1.90
2019-03-31T21:30:27.151Z,1.90
2019-03-31T21:32:55.999Z,1.90
2019-03-31T21:35:24.825Z,1.90
2019-03-31T21:37:53.599Z,1.90
2019-03-31T21:40:22.493Z,1.90
2019-03-31T21:42:51.291Z,1.90
2019-03-31T21:45:20.138Z,1.80
2019-03-31T21:47:49.017Z,1.80
2019-03-31T21:50:17.782Z,1.80
2019-03-31T21:52:46.562Z,1.80
2019-03-31T21:55:15.334Z,1.90
2019-03-31T21:57:44.132Z,1.90
2019-03-31T22:00:13.091Z,1.90
2019-03-31T22:02:41.929Z,1.80
2019-03-31T22:05:10.968Z,1.80
2019-03-31T22:07:39.748Z,1.90
2019-03-31T22:10:08.867Z,1.80
2019-03-31T22:12:37.586Z,1.80
2019-03-31T22:15:06.597Z,1.80
2019-03-31T22:17:35.343Z,1.80
2019-03-31T22:20:05.773Z,1.80
2019-03-31T22:22:34.570Z,1.80
2019-03-31T22:25:03.307Z,1.80
2019-03-31T22:27:32.092Z,1.80
2019-03-31T22:30:00.836Z,1.80
2019-03-31T22:32:29.628Z,1.80
2019-03-31T22:34:58.405Z,1.70
2019-03-31T22:37:27.189Z,1.80
2019-03-31T22:39:55.929Z,1.70
2019-03-31T22:42:24.776Z,1.80
2019-03-31T22:44:53.635Z,1.70
2019-03-31T22:47:22.401Z,1.80
2019-03-31T22:49:51.292Z,1.80
2019-03-31T22:52:20.103Z,1.80
2019-03-31T22:54:48.881Z,1.80
2019-03-31T22:57:17.735Z,1.80
2019-03-31T22:59:46.473Z,1.90
2019-03-31T23:02:15.317Z,1.90
2019-03-31T23:04:44.104Z,1.90
2019-03-31T23:07:12.914Z,1.90
2019-03-31T23:09:41.789Z,1.80
2019-03-31T23:12:10.604Z,1.80
2019-03-31T23:14:39.365Z,1.80
2019-03-31T23:17:08.356Z,1.80
2019-03-31T23:19:37.143Z,1.80
2019-03-31T23:22:06.666Z,1.80
2019-03-31T23:24:35.545Z,1.80
2019-03-31T23:27:04.445Z,1.80
2019-03-31T23:29:33.651Z,1.80
2019-03-31T23:32:02.804Z,1.80
2019-03-31T23:34:31.742Z,1.80
2019-03-31T23:37:00.643Z,1.80
2019-03-31T23:39:29.377Z,1.80
2019-03-31T23:41:58.325Z,1.80
2019-03-31T23:44:27.217Z,1.80
2019-03-31T23:46:56.045Z,1.80
2019-03-31T23:49:24.902Z,1.80
2019-03-31T23:51:53.700Z,1.80
2019-03-31T23:54:22.701Z,1.80
2019-03-31T23:56:51.590Z,1.80
2019-03-31T23:59:20.389Z,1.80
